createdAt,value
2019-04-29T03:45:42.338Z,69.90
2019-04-29T03:48:11.003Z,70.10
2019-04-29T03:50:39.509Z,69.90
2019-04-29T03:53:08.001Z,69.30
2019-04-29T03:55:39.636Z,69.40
2019-04-29T03:58:06.574Z,69.10
2019-04-29T04:00:34.989Z,69.10
2019-04-29T04:03:07.852Z,68.90
2019-04-29T04:05:43.880Z,69.40
2019-04-29T04:08:14.010Z,69.20
2019-04-29T04:10:42.428Z,68.70
2019-04-29T04:13:10.868Z,68.80
2019-04-29T04:15:39.291Z,68.60
2019-04-29T04:18:09.352Z,68.60
2019-04-29T04:20:37.768Z,69.40
2019-04-29T04:23:06.276Z,69.70
2019-04-29T04:25:34.688Z,69.80
2019-04-29T04:28:03.109Z,70.20
2019-04-29T04:30:31.519Z,69.20
2019-04-29T04:32:59.941Z,68.80
2019-04-29T04:35:28.435Z,69.10
2019-04-29T04:37:56.852Z,69.10
2019-04-29T04:40:26.909Z,69.00
2019-04-29T04:42:55.333Z,68.60
2019-04-29T04:45:23.752Z,69.20
2019-04-29T04:47:52.171Z,70.20
2019-04-29T04:50:20.604Z,71.40
2019-04-29T04:52:49.021Z,70.70
2019-04-29T04:55:19.055Z,71.00
2019-04-29T04:57:47.495Z,71.60
2019-04-29T05:00:20.143Z,71.00
2019-04-29T05:02:48.092Z,70.90
2019-04-29T05:05:16.603Z,70.70
2019-04-29T05:07:45.076Z,70.90
2019-04-29T05:10:13.688Z,70.50
2019-04-29T05:12:42.119Z,70.70
2019-04-29T05:15:10.863Z,71.00
2019-04-29T05:17:39.305Z,71.50
2019-04-29T05:20:07.982Z,71.90
2019-04-29T05:22:36.487Z,71.30
2019-04-29T05:25:06.543Z,71.70
2019-04-29T05:27:35.176Z,70.50
2019-04-29T05:30:04.613Z,71.00
2019-04-29T05:32:33.096Z,70.30
2019-04-29T05:35:03.244Z,69.70
2019-04-29T05:37:39.377Z,69.70
2019-04-29T05:40:08.436Z,69.00
2019-04-29T05:42:36.904Z,68.50
2019-04-29T05:45:08.992Z,68.20
2019-04-29T05:47:41.769Z,67.60
2019-04-29T05:50:20.720Z,67.90
2019-04-29T05:52:50.796Z,67.90
2019-04-29T05:55:19.215Z,67.20
2019-04-29T05:57:47.635Z,67.20
2019-04-29T06:00:18.788Z,66.50
2019-04-29T06:02:46.759Z,65.70
2019-04-29T06:05:15.326Z,65.80
2019-04-29T06:07:43.739Z,64.80
2019-04-29T06:10:12.324Z,65.20
2019-04-29T06:12:40.739Z,65.10
2019-04-29T06:15:09.696Z,65.10
2019-04-29T06:17:40.049Z,64.20
2019-04-29T06:20:08.457Z,63.50
2019-04-29T06:22:37.880Z,63.10
2019-04-29T06:25:07.079Z,62.40
2019-04-29T06:27:35.510Z,62.20
2019-04-29T06:30:06.716Z,62.00
2019-04-29T06:32:35.139Z,61.50
2019-04-29T06:35:04.832Z,61.20
2019-04-29T06:37:33.252Z,61.60
2019-04-29T06:40:01.685Z,61.10
2019-04-29T06:42:33.230Z,61.50
2019-04-29T06:45:00.327Z,61.60
2019-04-29T06:47:28.754Z,61.00
2019-04-29T06:49:57.239Z,60.80
2019-04-29T06:52:25.671Z,61.40
2019-04-29T06:54:54.108Z,60.50
2019-04-29T06:57:22.666Z,60.30
2019-04-29T06:59:51.112Z,60.00
2019-04-29T07:02:19.535Z,59.90
2019-04-29T07:04:48.012Z,58.20
2019-04-29T07:07:16.514Z,57.40
2019-04-29T07:09:45.035Z,57.60
2019-04-29T07:12:14.030Z,56.70
2019-04-29T07:14:42.648Z,55.80
2019-04-29T07:17:11.146Z,55.70
2019-04-29T07:19:39.607Z,55.60
2019-04-29T07:22:08.136Z,54.90
2019-04-29T07:24:36.588Z,55.00
2019-04-29T07:27:05.015Z,54.70
2019-04-29T07:29:33.586Z,54.10
2019-04-29T07:32:04.855Z,53.30
2019-04-29T07:34:33.675Z,53.20
2019-04-29T07:37:02.377Z,52.50
2019-04-29T07:39:31.681Z,52.80
2019-04-29T07:42:03.294Z,52.40
2019-04-29T07:44:43.426Z,52.00
2019-04-29T07:47:02.935Z,51.30
2019-04-29T07:49:31.420Z,51.40
2019-04-29T07:51:59.928Z,50.80
2019-04-29T07:54:28.379Z,51.10
2019-04-29T07:56:56.819Z,50.90
2019-04-29T07:59:25.314Z,50.00
2019-04-29T08:01:55.619Z,50.40
2019-04-29T08:04:23.914Z,49.80
2019-04-29T08:06:52.407Z,49.10
2019-04-29T08:09:20.902Z,50.30
2019-04-29T08:11:49.335Z,49.40
2019-04-29T08:14:19.126Z,49.80
2019-04-29T08:16:47.623Z,49.90
2019-04-29T08:19:16.065Z,49.70
2019-04-29T08:21:45.452Z,49.60
2019-04-29T08:24:15.874Z,49.40
2019-04-29T08:26:47.522Z,49.00
2019-04-29T08:29:14.660Z,49.10
2019-04-29T08:31:43.084Z,48.10
2019-04-29T08:34:11.541Z,49.20
2019-04-29T08:36:39.981Z,48.30
2019-04-29T08:39:09.099Z,48.80
2019-04-29T08:41:37.576Z,48.10
2019-04-29T08:44:16.501Z,48.50
2019-04-29T08:46:51.787Z,47.70
2019-04-29T08:49:15.643Z,48.30
2019-04-29T08:51:44.081Z,48.60
2019-04-29T08:54:16.069Z,48.80
2019-04-29T08:57:01.830Z,49.40
2019-04-29T08:59:12.851Z,50.90
2019-04-29T09:01:41.403Z,51.10
2019-04-29T09:04:09.843Z,51.30
2019-04-29T09:06:38.275Z,53.00
2019-04-29T09:09:10.577Z,52.70
2019-04-29T09:11:37.689Z,53.00
2019-04-29T09:14:06.184Z,52.40
2019-04-29T09:16:34.696Z,51.90
2019-04-29T09:19:03.131Z,51.50
2019-04-29T09:21:31.577Z,51.70
2019-04-29T09:24:00.043Z,51.20
2019-04-29T09:26:30.199Z,51.10
2019-04-29T09:29:03.805Z,51.00
2019-04-29T09:31:30.431Z,50.20
2019-04-29T09:34:06.505Z,51.10
2019-04-29T09:36:29.161Z,52.40
2019-04-29T09:38:57.615Z,52.50
2019-04-29T09:41:30.663Z,51.90
2019-04-29T09:44:05.579Z,53.00
2019-04-29T09:46:35.826Z,52.80
2019-04-29T09:49:04.477Z,51.10
2019-04-29T09:51:32.925Z,51.80
2019-04-29T09:54:01.375Z,51.20
2019-04-29T09:56:29.868Z,51.80
2019-04-29T09:59:16.279Z,52.40
2019-04-29T10:01:50.530Z,51.10
2019-04-29T10:04:21.080Z,51.80
2019-04-29T10:06:51.162Z,52.30
2019-04-29T10:09:19.656Z,51.40
2019-04-29T10:11:48.085Z,51.90
2019-04-29T10:14:16.524Z,52.50
2019-04-29T10:17:02.339Z,52.30
2019-04-29T10:19:32.395Z,52.80
2019-04-29T10:22:00.831Z,53.60
2019-04-29T10:24:29.253Z,54.30
2019-04-29T10:26:57.756Z,54.50
2019-04-29T10:29:27.816Z,54.70
2019-04-29T10:31:56.336Z,53.90
2019-04-29T10:34:26.908Z,53.30
2019-04-29T10:36:54.979Z,52.50
2019-04-29T10:39:42.338Z,49.20
2019-04-29T10:42:11.752Z,50.20
2019-04-29T10:44:57.846Z,49.80
2019-04-29T10:47:37.023Z,49.20
2019-04-29T10:50:26.733Z,49.40
2019-04-29T10:52:55.326Z,50.10
2019-04-29T10:55:25.631Z,48.40
2019-04-29T10:57:54.182Z,48.40
2019-04-29T11:00:38.841Z,50.70
2019-04-29T11:03:07.624Z,48.40
2019-04-29T11:05:38.042Z,49.00
2019-04-29T11:08:08.822Z,49.80
2019-04-29T11:10:37.244Z,49.70
2019-04-29T11:13:06.064Z,51.10
2019-04-29T11:15:36.161Z,51.40
2019-04-29T11:18:05.131Z,52.00
2019-04-29T11:20:34.120Z,52.10
2019-04-29T11:23:19.522Z,53.30
2019-04-29T11:25:52.406Z,52.60
2019-04-29T11:28:21.779Z,52.30
2019-04-29T11:30:50.663Z,53.10
2019-04-29T11:33:22.179Z,53.60
2019-04-29T11:36:06.770Z,53.50
2019-04-29T11:38:38.420Z,54.70
2019-04-29T11:41:05.562Z,54.40
2019-04-29T11:43:34.650Z,55.10
2019-04-29T11:46:03.354Z,55.80
2019-04-29T11:48:31.999Z,56.20
2019-04-29T11:51:08.231Z,57.30
2019-04-29T11:53:36.781Z,57.60
2019-04-29T11:56:05.203Z,58.30
2019-04-29T11:58:46.879Z,58.00
2019-04-29T12:01:22.385Z,57.90
2019-04-29T12:03:56.656Z,58.00
2019-04-29T12:06:23.067Z,57.60
2019-04-29T12:08:53.235Z,57.50
2019-04-29T12:11:22.457Z,57.00
2019-04-29T12:13:58.977Z,57.20
2019-04-29T12:16:27.442Z,57.30
2019-04-29T12:18:57.536Z,57.70
2019-04-29T12:21:30.246Z,57.30
2019-04-29T12:23:59.662Z,58.20
2019-04-29T12:26:28.785Z,58.70
2019-04-29T12:28:57.223Z,58.60
2019-04-29T12:31:44.854Z,58.80
2019-04-29T12:34:30.070Z,59.10
2019-04-29T12:36:58.637Z,58.60
2019-04-29T12:39:43.244Z,57.80
2019-04-29T12:42:12.254Z,57.60
2019-04-29T12:44:44.441Z,56.40
2019-04-29T12:47:26.825Z,56.30
2019-04-29T12:49:50.139Z,54.60
2019-04-29T12:52:18.645Z,55.20
2019-04-29T12:54:47.763Z,54.70
2019-04-29T12:57:18.850Z,54.70
2019-04-29T12:59:46.393Z,54.80
2019-04-29T13:02:19.883Z,55.20
2019-04-29T13:04:53.847Z,55.50
2019-04-29T13:07:29.757Z,55.30
2019-04-29T13:10:02.071Z,55.40
2019-04-29T13:12:30.469Z,55.10
2019-04-29T13:15:15.724Z,55.50
2019-04-29T13:17:45.818Z,55.50
2019-04-29T13:20:14.483Z,55.70
2019-04-29T13:22:42.911Z,56.40
2019-04-29T13:25:15.344Z,56.20
2019-04-29T13:27:41.924Z,56.70
2019-04-29T13:30:16.208Z,55.80
2019-04-29T13:32:43.731Z,55.80
2019-04-29T13:35:12.862Z,56.30
2019-04-29T13:37:41.509Z,56.30
2019-04-29T13:40:11.967Z,56.40
2019-04-29T13:42:40.394Z,55.50
2019-04-29T13:45:13.394Z,55.40
2019-04-29T13:47:54.564Z,56.10
2019-04-29T13:50:39.020Z,55.80
2019-04-29T13:52:54.865Z,56.00
2019-04-29T13:55:46.660Z,56.00
2019-04-29T13:57:54.941Z,56.10
2019-04-29T14:00:26.378Z,56.10
2019-04-29T14:03:02.680Z,56.00
2019-04-29T14:05:36.288Z,55.70
2019-04-29T14:08:03.861Z,56.30
2019-04-29T14:10:32.082Z,56.00
2019-04-29T14:13:09.792Z,55.00
2019-04-29T14:15:33.881Z,54.90
2019-04-29T14:18:00.929Z,54.70
2019-04-29T14:20:29.364Z,55.60
2019-04-29T14:22:57.806Z,55.00
2019-04-29T14:25:26.316Z,53.40
2019-04-29T14:27:54.759Z,55.40
2019-04-29T14:30:37.297Z,55.90
2019-04-29T14:32:55.200Z,56.20
2019-04-29T14:35:27.979Z,55.20
2019-04-29T14:38:04.583Z,56.00
2019-04-29T14:40:26.590Z,57.50
2019-04-29T14:43:03.050Z,54.80
2019-04-29T14:45:34.144Z,54.70
2019-04-29T14:48:10.030Z,54.80
2019-04-29T14:50:38.851Z,54.00
2019-04-29T14:53:07.279Z,49.20
2019-04-29T14:55:35.708Z,48.80
2019-04-29T14:58:04.304Z,50.10
2019-04-29T15:00:52.031Z,51.20
2019-04-29T15:03:33.849Z,48.10
2019-04-29T15:06:02.450Z,49.80
2019-04-29T15:08:36.197Z,48.70
2019-04-29T15:11:08.980Z,49.00
2019-04-29T15:13:34.436Z,48.50
2019-04-29T15:16:05.272Z,48.70
2019-04-29T15:18:50.599Z,48.40
2019-04-29T15:21:32.176Z,49.90
2019-04-29T15:23:53.004Z,50.10
2019-04-29T15:26:21.450Z,51.50
2019-04-29T15:28:52.887Z,53.10
2019-04-29T15:31:23.389Z,54.10
2019-04-29T15:33:52.118Z,54.80
2019-04-29T15:36:20.613Z,54.60
2019-04-29T15:39:07.730Z,55.40
2019-04-29T15:41:19.266Z,54.20
2019-04-29T15:43:48.417Z,54.40
2019-04-29T15:46:17.204Z,54.30
2019-04-29T15:48:45.670Z,54.10
2019-04-29T15:51:14.901Z,54.30
2019-04-29T15:53:43.400Z,54.20
2019-04-29T15:56:27.683Z,54.10
2019-04-29T15:58:42.293Z,54.30
2019-04-29T16:01:16.814Z,54.60
2019-04-29T16:03:41.097Z,53.30
2019-04-29T16:06:26.147Z,52.10
2019-04-29T16:08:59.028Z,54.40
2019-04-29T16:11:36.764Z,53.10
2019-04-29T16:14:09.684Z,53.90
2019-04-29T16:16:37.136Z,54.30
2019-04-29T16:19:08.000Z,54.00
2019-04-29T16:21:39.028Z,54.30
2019-04-29T16:24:25.004Z,54.60
2019-04-29T16:26:36.109Z,55.30
2019-04-29T16:29:12.322Z,54.80
2019-04-29T16:31:34.760Z,55.50
2019-04-29T16:34:03.274Z,55.00
2019-04-29T16:36:31.682Z,54.20
2019-04-29T16:39:00.133Z,54.90
2019-04-29T16:41:39.183Z,54.80
2019-04-29T16:44:33.725Z,55.10
2019-04-29T16:46:39.713Z,54.80
2019-04-29T16:49:08.155Z,54.60
2019-04-29T16:51:36.794Z,54.80
2019-04-29T16:54:05.633Z,55.30
2019-04-29T16:56:34.492Z,54.90
2019-04-29T16:59:09.329Z,56.30
2019-04-29T17:01:33.215Z,55.40
2019-04-29T17:04:05.401Z,55.30
2019-04-29T17:06:35.873Z,55.00
2019-04-29T17:09:10.469Z,55.30
2019-04-29T17:11:42.029Z,55.40
2019-04-29T17:14:12.607Z,56.00
2019-04-29T17:16:41.173Z,55.60
2019-04-29T17:19:09.644Z,55.10
2019-04-29T17:21:38.225Z,55.30
2019-04-29T17:24:07.284Z,55.70
2019-04-29T17:26:40.387Z,55.80
2019-04-29T17:29:38.870Z,56.10
2019-04-29T17:32:15.017Z,56.20
2019-04-29T17:34:58.606Z,56.00
2019-04-29T17:37:16.395Z,56.50
2019-04-29T17:39:45.231Z,56.40
2019-04-29T17:42:13.779Z,56.90
2019-04-29T17:44:46.854Z,57.10
2019-04-29T17:47:33.295Z,57.80
2019-04-29T17:50:29.454Z,58.40
2019-04-29T17:52:49.856Z,58.90
2019-04-29T17:55:21.663Z,58.90
2019-04-29T17:57:54.881Z,59.50
2019-04-29T18:00:43.983Z,58.80
2019-04-29T18:03:25.573Z,58.80
2019-04-29T18:06:17.196Z,58.90
2019-04-29T18:09:04.951Z,59.20
2019-04-29T18:11:33.524Z,59.60
2019-04-29T18:14:01.979Z,60.30
2019-04-29T18:16:39.593Z,61.50
2019-04-29T18:19:20.580Z,61.20
2019-04-29T18:22:07.342Z,61.10
2019-04-29T18:24:41.286Z,60.40
2019-04-29T18:27:12.212Z,59.80
2019-04-29T18:29:41.716Z,59.20
2019-04-29T18:32:13.073Z,59.50
2019-04-29T18:34:42.447Z,60.10
2019-04-29T18:37:13.075Z,59.80
2019-04-29T18:39:43.112Z,59.60
2019-04-29T18:42:15.977Z,60.60
2019-04-29T18:44:54.930Z,60.20
2019-04-29T18:47:22.562Z,59.80
2019-04-29T18:49:48.179Z,59.30
2019-04-29T18:52:25.652Z,59.60
2019-04-29T18:54:49.578Z,58.70
2019-04-29T18:57:27.653Z,57.90
2019-04-29T18:59:50.520Z,58.90
2019-04-29T19:02:19.966Z,58.90
2019-04-29T19:04:53.428Z,59.80
2019-04-29T19:07:23.049Z,61.00
2019-04-29T19:09:52.505Z,62.80
2019-04-29T19:12:23.446Z,63.40
2019-04-29T19:14:51.943Z,64.20
2019-04-29T19:17:21.728Z,64.20
2019-04-29T19:19:50.500Z,64.10
2019-04-29T19:22:18.989Z,64.00
2019-04-29T19:24:48.202Z,64.20
2019-04-29T19:27:16.812Z,63.70
2019-04-29T19:29:45.310Z,63.80
2019-04-29T19:32:14.135Z,65.10
2019-04-29T19:34:43.639Z,66.10
2019-04-29T19:37:15.253Z,66.60
2019-04-29T19:39:44.923Z,66.70
2019-04-29T19:42:13.502Z,66.10
2019-04-29T19:44:45.266Z,66.00
2019-04-29T19:47:16.729Z,65.40
2019-04-29T19:49:45.972Z,65.50
2019-04-29T19:52:26.523Z,65.70
2019-04-29T19:54:46.460Z,65.60
2019-04-29T19:57:15.084Z,65.30
2019-04-29T19:59:51.468Z,65.10
2019-04-29T20:02:14.614Z,65.30
2019-04-29T20:04:52.353Z,65.70
2019-04-29T20:07:19.425Z,65.70
2019-04-29T20:09:49.344Z,63.90
2019-04-29T20:12:18.966Z,62.70
2019-04-29T20:14:47.918Z,63.20
2019-04-29T20:17:36.963Z,62.90
2019-04-29T20:20:15.809Z,62.60
2019-04-29T20:22:51.160Z,62.20
2019-04-29T20:25:29.291Z,61.40
2019-04-29T20:27:48.665Z,61.60
2019-04-29T20:30:20.920Z,60.90
2019-04-29T20:32:49.823Z,60.60
2019-04-29T20:35:18.831Z,61.40
2019-04-29T20:37:47.963Z,60.40
2019-04-29T20:40:17.833Z,60.30
2019-04-29T20:42:48.924Z,59.90
2019-04-29T20:45:20.144Z,59.60
2019-04-29T20:47:46.963Z,59.70
2019-04-29T20:50:16.627Z,59.50
2019-04-29T20:52:58.952Z,59.70
2019-04-29T20:55:23.137Z,60.40
2019-04-29T20:57:54.725Z,60.50
2019-04-29T21:00:27.128Z,61.30
2019-04-29T21:02:56.946Z,61.10
2019-04-29T21:05:27.678Z,61.50
2019-04-29T21:08:03.124Z,62.20
2019-04-29T21:10:27.168Z,61.80
2019-04-29T21:13:16.234Z,62.50
2019-04-29T21:15:51.801Z,60.10
2019-04-29T21:18:15.919Z,60.40
2019-04-29T21:20:45.142Z,60.80
2019-04-29T21:23:13.676Z,61.50
2019-04-29T21:25:42.109Z,61.80
2019-04-29T21:28:10.555Z,63.20
2019-04-29T21:30:42.495Z,63.40
2019-04-29T21:33:18.210Z,64.20
2019-04-29T21:35:57.890Z,64.30
2019-04-29T21:38:45.453Z,65.40
2019-04-29T21:41:19.579Z,65.90
2019-04-29T21:43:53.580Z,66.80
2019-04-29T21:46:24.482Z,66.60
2019-04-29T21:48:47.644Z,66.50
2019-04-29T21:51:17.444Z,66.60
2019-04-29T21:53:46.009Z,66.90
2019-04-29T21:56:15.990Z,66.30
2019-04-29T21:58:44.605Z,66.10
2019-04-29T22:01:15.244Z,63.80
2019-04-29T22:03:43.831Z,62.90
2019-04-29T22:06:12.325Z,62.50
2019-04-29T22:08:40.746Z,62.10
2019-04-29T22:11:09.179Z,64.10
2019-04-29T22:13:39.214Z,62.40
2019-04-29T22:16:11.565Z,62.70
2019-04-29T22:18:37.941Z,62.70
2019-04-29T22:21:09.725Z,63.20
2019-04-29T22:23:36.731Z,63.00
2019-04-29T22:26:05.228Z,62.80
2019-04-29T22:28:35.129Z,62.30
2019-04-29T22:31:05.361Z,63.00
2019-04-29T22:33:34.929Z,62.80
2019-04-29T22:36:05.331Z,62.40
2019-04-29T22:38:35.863Z,62.20
2019-04-29T22:41:05.805Z,61.40
2019-04-29T22:43:50.508Z,62.10
2019-04-29T22:46:19.009Z,63.40
2019-04-29T22:48:48.693Z,64.20
2019-04-29T22:51:19.017Z,64.40
2019-04-29T22:53:48.331Z,64.30
2019-04-29T22:56:16.917Z,65.10
2019-04-29T22:58:47.359Z,66.00
